Time;durP1;ratioP1;P1;durP2;ratioP2;P2;SDS_P1;SDS_P2;PMS_P1;PMS_P2;Temp;Humidity;BMP_temperature;BMP_pressure;BME280_temperature;BME280_humidity;BME280_pressure;Samples;Min_cycle;Max_cycle;Signal;HPM_P1;HPM_P2
2022/06/28 00:00:31;;;;;;;12.55;11.13;;;14.80;99.90;;;;;;5055458;28;20106;-67
2022/06/28 00:02:57;;;;;;;12.48;10.85;;;15.10;99.90;;;;;;5050719;28;20044;-67
2022/06/28 00:05:23;;;;;;;13.25;11.20;;;14.70;99.90;;;;;;5067388;28;20078;-67
2022/06/28 00:07:49;;;;;;;16.77;11.82;;;14.70;99.90;;;;;;5067738;28;20408;-67
2022/06/28 00:10:16;;;;;;;13.18;11.32;;;14.60;99.90;;;;;;5067475;28;20183;-67
2022/06/28 00:12:41;;;;;;;19.17;12.35;;;15.30;99.90;;;;;;5067661;28;20067;-67
2022/06/28 00:17:54;;;;;;;16.25;12.32;;;14.60;99.90;;;;;;5056743;28;20127;-68
2022/06/28 00:20:20;;;;;;;15.75;11.77;;;14.60;99.90;;;;;;5066458;28;20147;-68
2022/06/28 00:22:46;;;;;;;17.27;12.10;;;14.50;99.90;;;;;;5075017;28;20028;-67
2022/06/28 00:25:12;;;;;;;14.90;12.32;;;14.80;99.90;;;;;;5069586;28;20044;-67
2022/06/28 00:27:39;;;;;;;13.70;11.48;;;15.00;99.90;;;;;;5054261;28;20481;-67
2022/06/28 00:30:05;;;;;;;16.23;11.68;;;15.00;99.90;;;;;;5084987;28;20060;-67
2022/06/28 00:32:32;;;;;;;14.60;11.80;;;14.40;99.90;;;;;;5067316;28;20123;-67
2022/06/28 00:34:59;;;;;;;17.20;11.48;;;14.40;99.90;;;;;;5066310;28;20065;-67
2022/06/28 00:37:25;;;;;;;15.65;11.85;;;14.40;99.90;;;;;;5047666;28;20041;-67
2022/06/28 00:39:50;;;;;;;14.27;10.57;;;14.50;99.90;;;;;;5054691;28;20044;-67
2022/06/28 00:42:16;;;;;;;14.32;11.40;;;14.60;99.90;;;;;;5068957;28;20044;-67
2022/06/28 00:44:42;;;;;;;14.55;11.90;;;14.40;99.90;;;;;;5103865;28;20047;-67
2022/06/28 00:47:09;;;;;;;16.75;11.75;;;14.40;99.90;;;;;;5087007;28;20048;-67
2022/06/28 00:49:41;;;;;;;15.23;11.25;;;14.40;99.90;;;;;;5069030;28;20075;-70
2022/06/28 00:52:09;;;;;;;12.70;11.05;;;14.20;99.90;;;;;;5064182;28;20052;-67
2022/06/28 00:54:34;;;;;;;17.10;11.43;;;14.30;99.90;;;;;;5077885;28;20043;-67
2022/06/28 00:57:00;;;;;;;14.40;11.73;;;14.30;99.90;;;;;;5088449;28;20051;-67
2022/06/28 00:59:26;;;;;;;16.83;12.43;;;14.30;99.90;;;;;;5071037;28;20048;-67
2022/06/28 01:01:52;;;;;;;15.55;11.73;;;14.30;99.90;;;;;;5087377;28;20074;-68
2022/06/28 01:04:18;;;;;;;13.95;11.13;;;14.20;99.90;;;;;;5067191;28;20051;-67
2022/06/28 01:06:44;;;;;;;14.05;11.35;;;14.20;99.90;;;;;;5036026;28;20513;-69
2022/06/28 01:09:10;;;;;;;14.10;11.35;;;14.20;99.90;;;;;;5070614;28;20434;-69
2022/06/28 01:11:36;;;;;;;14.15;11.57;;;14.20;99.90;;;;;;5054673;28;20040;-67
2022/06/28 01:14:06;;;;;;;14.35;11.30;;;14.20;99.90;;;;;;5053079;28;20084;-67
2022/06/28 01:16:31;;;;;;;15.77;10.52;;;14.40;99.90;;;;;;5031816;28;20052;-68
2022/06/28 01:18:57;;;;;;;12.27;10.20;;;14.20;99.90;;;;;;5038260;28;20040;-70
2022/06/28 01:21:26;;;;;;;13.15;10.60;;;14.80;99.90;;;;;;5080195;28;20052;-69
2022/06/28 01:23:51;;;;;;;13.98;9.77;;;14.20;99.90;;;;;;5053136;28;20041;-69
2022/06/28 01:26:21;;;;;;;12.77;10.52;;;14.30;99.90;;;;;;5069614;28;20052;-69
2022/06/28 01:28:51;;;;;;;11.75;10.20;;;14.20;99.90;;;;;;5083422;28;20105;-69
2022/06/28 01:31:18;;;;;;;12.35;10.77;;;14.10;99.90;;;;;;5069773;28;20070;-70
2022/06/28 01:33:44;;;;;;;12.93;10.00;;;14.10;99.90;;;;;;5056266;28;20105;-66
2022/06/28 01:36:10;;;;;;;13.77;9.63;;;14.10;99.90;;;;;;5069707;28;20119;-67
2022/06/28 01:38:38;;;;;;;13.35;10.38;;;14.10;99.90;;;;;;5070790;28;20051;-69
2022/06/28 01:41:05;;;;;;;16.10;10.02;;;14.00;99.90;;;;;;5070702;28;20045;-69
2022/06/28 01:43:32;;;;;;;13.63;9.30;;;14.10;99.90;;;;;;5052481;28;20388;-69
2022/06/28 01:45:58;;;;;;;11.93;9.40;;;14.00;99.90;;;;;;5071493;28;20036;-69
2022/06/28 01:48:25;;;;;;;12.65;9.48;;;13.90;99.90;;;;;;5054976;28;20040;-69
2022/06/28 01:50:54;;;;;;;14.52;9.73;;;14.00;99.90;;;;;;5089694;28;20040;-69
2022/06/28 01:53:21;;;;;;;10.70;9.45;;;14.00;99.90;;;;;;5090112;28;20365;-69
2022/06/28 01:55:47;;;;;;;12.35;9.20;;;13.90;99.90;;;;;;5080039;28;20041;-67
2022/06/28 01:58:14;;;;;;;12.02;8.65;;;14.50;99.90;;;;;;5051933;28;20033;-67
2022/06/28 02:00:40;;;;;;;13.73;8.95;;;13.90;99.90;;;;;;5068091;28;20166;-67
2022/06/28 02:03:06;;;;;;;11.85;8.93;;;13.90;99.90;;;;;;5070853;28;20384;-67
2022/06/28 02:05:32;;;;;;;14.80;8.80;;;13.90;99.90;;;;;;5051396;28;20076;-67
2022/06/28 02:07:58;;;;;;;11.75;9.05;;;13.90;99.90;;;;;;5089728;28;20090;-68
2022/06/28 02:10:24;;;;;;;13.68;9.50;;;14.00;99.90;;;;;;5092473;28;20444;-67
2022/06/28 02:12:49;;;;;;;9.73;8.68;;;14.80;99.90;;;;;;5091769;28;20047;-69
2022/06/28 02:15:15;;;;;;;12.07;9.00;;;14.30;99.90;;;;;;5089838;28;20040;-67
2022/06/28 02:17:42;;;;;;;11.00;8.98;;;13.90;99.90;;;;;;5077942;28;20028;-67
2022/06/28 02:20:09;;;;;;;12.93;9.10;;;13.90;99.90;;;;;;5086996;28;20037;-67
2022/06/28 02:22:35;;;;;;;12.63;8.88;;;13.80;99.90;;;;;;5070498;28;20415;-69
2022/06/28 02:25:00;;;;;;;12.70;8.85;;;13.80;99.90;;;;;;5090017;28;20122;-69
2022/06/28 02:27:26;;;;;;;13.32;9.43;;;13.80;99.90;;;;;;5052966;28;20036;-69
2022/06/28 02:29:52;;;;;;;11.80;8.75;;;14.00;99.90;;;;;;5070763;28;20458;-69
2022/06/28 02:32:18;;;;;;;12.30;9.10;;;13.90;99.90;;;;;;5089110;28;20040;-69
2022/06/28 02:40:21;;;;;;;10.40;8.07;;;13.80;99.90;;;;;;5030192;28;20072;-69
2022/06/28 02:42:47;;;;;;;13.25;8.07;;;13.80;99.90;;;;;;5054506;28;20056;-69
2022/06/28 02:45:13;;;;;;;12.60;7.88;;;13.80;99.90;;;;;;5088271;28;20093;-69
2022/06/28 02:47:39;;;;;;;12.02;8.48;;;13.90;99.90;;;;;;5089108;28;20554;-69
2022/06/28 02:50:05;;;;;;;13.20;8.27;;;13.80;99.90;;;;;;5088763;28;20491;-69
2022/06/28 02:52:31;;;;;;;15.25;8.13;;;13.80;99.90;;;;;;5072125;28;20048;-69
2022/06/28 02:54:56;;;;;;;13.32;7.65;;;13.80;99.90;;;;;;5071301;28;20059;-67
2022/06/28 02:57:22;;;;;;;13.43;8.20;;;13.80;99.90;;;;;;5068749;28;20349;-67
2022/06/28 02:59:47;;;;;;;13.02;8.35;;;13.80;99.90;;;;;;5069056;28;20083;-67
2022/06/28 03:02:13;;;;;;;15.43;9.10;;;13.80;99.90;;;;;;5081531;28;20032;-67
2022/06/28 03:04:39;;;;;;;15.60;8.73;;;13.70;99.90;;;;;;5088811;28;20347;-67
2022/06/28 03:07:04;;;;;;;11.25;8.75;;;13.70;99.90;;;;;;5070220;28;20044;-67
2022/06/28 03:09:30;;;;;;;12.75;9.48;;;13.70;99.90;;;;;;5087808;28;20044;-67
2022/06/28 03:11:55;;;;;;;12.75;9.45;;;13.70;99.90;;;;;;5088499;28;20043;-68
2022/06/28 03:14:21;;;;;;;13.05;9.63;;;13.70;99.90;;;;;;5085701;28;20153;-68
2022/06/28 03:16:47;;;;;;;14.48;9.15;;;13.70;99.90;;;;;;5068453;28;20123;-67
2022/06/28 03:19:12;;;;;;;16.38;10.05;;;13.70;99.90;;;;;;5068097;28;20044;-68
2022/06/28 03:21:38;;;;;;;13.25;10.00;;;13.70;99.90;;;;;;5066832;28;20170;-68
2022/06/28 03:24:04;;;;;;;12.60;10.45;;;13.70;99.90;;;;;;5068248;28;20041;-68
2022/06/28 03:26:29;;;;;;;13.23;10.50;;;13.60;99.90;;;;;;5044168;28;20045;-68
2022/06/28 03:28:55;;;;;;;13.88;9.95;;;13.60;99.90;;;;;;5084067;28;20518;-68
2022/06/28 03:31:21;;;;;;;12.18;9.68;;;13.60;99.90;;;;;;5087750;28;20463;-68
2022/06/28 03:33:46;;;;;;;13.32;9.38;;;13.70;99.90;;;;;;5088859;28;20489;-68
2022/06/28 03:36:12;;;;;;;15.45;10.63;;;13.60;99.90;;;;;;5085951;28;20050;-68
2022/06/28 03:38:38;;;;;;;13.25;9.60;;;13.80;99.90;;;;;;5081742;28;20079;-68
2022/06/28 03:41:03;;;;;;;15.70;10.73;;;13.60;99.90;;;;;;5051172;28;20484;-68
2022/06/28 03:43:29;;;;;;;14.75;9.80;;;13.70;99.90;;;;;;5070509;28;20362;-68
2022/06/28 03:45:54;;;;;;;15.10;10.00;;;13.70;99.90;;;;;;5068837;28;20424;-68
2022/06/28 03:48:20;;;;;;;16.98;9.57;;;13.70;99.90;;;;;;5068427;28;20086;-68
2022/06/28 03:50:46;;;;;;;13.32;9.68;;;13.80;99.90;;;;;;5067141;28;20074;-67
2022/06/28 03:53:11;;;;;;;14.80;9.57;;;13.70;99.90;;;;;;5050651;28;20047;-67
2022/06/28 03:55:37;;;;;;;18.92;10.05;;;13.70;99.90;;;;;;5071496;28;20057;-67
2022/06/28 03:58:03;;;;;;;12.70;9.52;;;13.80;99.90;;;;;;5079403;28;20564;-67
2022/06/28 04:00:28;;;;;;;14.02;9.73;;;14.10;99.90;;;;;;5049995;28;20049;-67
2022/06/28 04:02:54;;;;;;;19.48;9.93;;;14.30;99.90;;;;;;5068225;28;20124;-67
2022/06/28 04:05:19;;;;;;;11.18;8.98;;;13.60;99.90;;;;;;5067385;28;20044;-68
2022/06/28 04:07:45;;;;;;;13.57;8.93;;;13.70;99.90;;;;;;5089327;28;20040;-67
2022/06/28 04:10:11;;;;;;;12.50;8.80;;;13.70;99.90;;;;;;5088144;28;20039;-67
2022/06/28 04:12:36;;;;;;;17.45;9.30;;;14.00;99.90;;;;;;5087649;28;20058;-67
2022/06/28 04:15:03;;;;;;;11.90;8.70;;;13.70;99.90;;;;;;5088441;28;20047;-68
2022/06/28 04:17:28;;;;;;;13.68;9.52;;;13.70;99.90;;;;;;5089039;28;20040;-68
2022/06/28 04:19:54;;;;;;;16.00;9.75;;;13.70;99.90;;;;;;5063679;28;20059;-67
2022/06/28 04:22:19;;;;;;;12.85;8.88;;;13.60;99.90;;;;;;5034074;28;20131;-68
2022/06/28 04:24:45;;;;;;;12.75;8.85;;;13.60;99.90;;;;;;5072517;28;20036;-67
2022/06/28 04:27:11;;;;;;;12.52;8.38;;;13.60;99.90;;;;;;5069408;28;20105;-67
2022/06/28 04:29:36;;;;;;;18.63;8.35;;;13.60;99.90;;;;;;5087310;28;20056;-68
2022/06/28 04:32:02;;;;;;;14.52;8.25;;;13.50;99.90;;;;;;5085496;28;20381;-68
2022/06/28 04:34:28;;;;;;;12.57;8.00;;;13.50;99.90;;;;;;5088220;28;20126;-67
2022/06/28 04:36:54;;;;;;;12.63;8.25;;;13.70;99.90;;;;;;5088954;28;20099;-68
2022/06/28 04:39:20;;;;;;;15.88;8.52;;;13.50;99.90;;;;;;5069090;28;20048;-68
2022/06/28 04:41:45;;;;;;;11.85;8.68;;;13.50;99.90;;;;;;5069707;28;20040;-68
2022/06/28 04:44:11;;;;;;;13.05;8.07;;;13.70;99.90;;;;;;5074043;28;20124;-68
2022/06/28 04:46:36;;;;;;;14.75;8.05;;;13.60;99.90;;;;;;5072074;28;20522;-69
2022/06/28 04:49:03;;;;;;;13.07;8.10;;;13.60;99.90;;;;;;5072535;28;20135;-68
2022/06/28 04:51:28;;;;;;;16.35;7.97;;;13.70;99.90;;;;;;5071975;28;20066;-68
2022/06/28 04:53:54;;;;;;;12.15;6.88;;;13.70;99.90;;;;;;5089212;28;20028;-69
2022/06/28 04:56:21;;;;;;;12.55;7.30;;;13.70;99.90;;;;;;5043867;28;20040;-68
2022/06/28 04:58:46;;;;;;;14.23;7.60;;;14.00;99.90;;;;;;5075447;28;20043;-69
2022/06/28 05:01:12;;;;;;;13.52;6.72;;;13.80;99.90;;;;;;5055128;28;20032;-69
2022/06/28 05:03:38;;;;;;;14.27;6.75;;;13.80;99.90;;;;;;5065103;28;20231;-68
2022/06/28 05:06:04;;;;;;;12.55;7.28;;;13.90;99.90;;;;;;5068068;28;20388;-68
2022/06/28 05:08:30;;;;;;;13.82;7.80;;;13.90;99.90;;;;;;5091152;28;20036;-68
2022/06/28 05:10:55;;;;;;;11.48;7.47;;;13.90;99.90;;;;;;5072273;28;20375;-69
2022/06/28 05:13:21;;;;;;;12.15;6.97;;;14.00;99.90;;;;;;5052818;28;20051;-69
2022/06/28 05:15:47;;;;;;;10.55;6.80;;;14.00;99.90;;;;;;5055664;28;20147;-68
2022/06/28 05:18:12;;;;;;;14.10;6.93;;;14.00;99.90;;;;;;5066102;28;20055;-69
2022/06/28 05:20:38;;;;;;;12.88;7.22;;;14.50;99.90;;;;;;5052317;28;20084;-68
2022/06/28 05:23:04;;;;;;;16.30;6.53;;;14.40;99.90;;;;;;5051351;28;20044;-68
2022/06/28 05:25:29;;;;;;;11.20;7.07;;;14.10;99.90;;;;;;5035727;28;20350;-68
2022/06/28 05:27:55;;;;;;;13.30;6.70;;;14.20;99.90;;;;;;5052654;28;20472;-69
2022/06/28 05:30:21;;;;;;;11.45;6.88;;;14.20;99.90;;;;;;5068909;28;20443;-68
2022/06/28 05:32:46;;;;;;;13.10;7.10;;;14.30;99.90;;;;;;5070897;28;20048;-69
2022/06/28 05:35:12;;;;;;;14.77;7.78;;;14.30;99.90;;;;;;5051946;28;20080;-69
2022/06/28 05:37:37;;;;;;;15.07;6.88;;;14.30;99.90;;;;;;5051212;28;20039;-68
2022/06/28 05:40:03;;;;;;;11.40;7.00;;;14.30;99.90;;;;;;5072487;28;20040;-69
2022/06/28 05:42:29;;;;;;;12.30;7.03;;;14.40;99.90;;;;;;5053554;28;20400;-69
2022/06/28 05:44:55;;;;;;;14.30;7.13;;;14.40;99.90;;;;;;5063601;28;20122;-69
2022/06/28 05:47:20;;;;;;;9.38;6.63;;;14.40;99.90;;;;;;5072709;28;20161;-69
2022/06/28 05:49:46;;;;;;;11.77;7.18;;;14.50;99.90;;;;;;5071334;28;20122;-68
2022/06/28 05:52:12;;;;;;;10.45;7.07;;;14.60;99.90;;;;;;5072583;28;20040;-68
2022/06/28 05:54:37;;;;;;;11.63;7.05;;;14.70;99.90;;;;;;5090809;28;20051;-69
2022/06/28 05:57:03;;;;;;;10.60;6.88;;;14.70;99.90;;;;;;5067922;28;20029;-68
2022/06/28 05:59:29;;;;;;;10.80;7.15;;;14.80;99.90;;;;;;5046252;28;20516;-68
2022/06/28 06:01:55;;;;;;;10.48;6.60;;;14.80;99.90;;;;;;5069761;28;20400;-68
2022/06/28 06:04:24;;;;;;;13.85;6.70;;;14.90;99.90;;;;;;5076864;28;20051;-69
2022/06/28 06:06:50;;;;;;;15.40;7.40;;;15.00;99.90;;;;;;5091091;28;20040;-68
2022/06/28 06:09:16;;;;;;;10.10;6.60;;;14.90;99.90;;;;;;5092627;28;20036;-69
2022/06/28 06:11:41;;;;;;;11.18;6.55;;;14.90;99.90;;;;;;5054003;28;20086;-69
2022/06/28 06:14:07;;;;;;;11.23;6.43;;;15.00;99.90;;;;;;5087888;28;20506;-69
2022/06/28 06:16:32;;;;;;;12.52;6.55;;;15.00;99.90;;;;;;5077292;28;20428;-69
2022/06/28 06:18:58;;;;;;;11.93;6.55;;;15.00;99.90;;;;;;5073257;28;20040;-67
2022/06/28 06:21:24;;;;;;;14.52;7.10;;;15.10;99.90;;;;;;5067325;28;20094;-70
2022/06/28 06:23:49;;;;;;;11.20;6.80;;;15.10;99.90;;;;;;5069865;28;20032;-68
2022/06/28 06:26:18;;;;;;;13.70;6.70;;;15.20;99.90;;;;;;5067978;28;20045;-67
2022/06/28 06:28:44;;;;;;;12.10;7.32;;;15.20;99.90;;;;;;5071301;28;20448;-67
2022/06/28 06:31:09;;;;;;;14.05;7.43;;;15.20;99.90;;;;;;5072086;28;20167;-70
2022/06/28 06:33:35;;;;;;;12.02;6.95;;;15.30;99.90;;;;;;5069381;28;20076;-67
2022/06/28 06:36:02;;;;;;;12.20;6.82;;;15.30;99.90;;;;;;5059857;28;20133;-70
2022/06/28 06:38:28;;;;;;;11.98;6.65;;;15.40;99.90;;;;;;5049550;28;20045;-68
2022/06/28 06:40:55;;;;;;;13.70;6.00;;;15.40;99.90;;;;;;5050865;28;20343;-70
2022/06/28 06:43:21;;;;;;;14.95;6.10;;;15.60;99.90;;;;;;5033677;28;20143;-69
2022/06/28 06:45:47;;;;;;;18.48;6.38;;;15.60;99.90;;;;;;5048838;28;20037;-69
2022/06/28 06:48:13;;;;;;;11.40;5.57;;;15.70;99.90;;;;;;5031274;28;20127;-69
2022/06/28 06:50:38;;;;;;;11.35;5.63;;;15.70;99.90;;;;;;5048212;28;20076;-68
2022/06/28 06:53:04;;;;;;;11.13;5.63;;;15.80;99.90;;;;;;5047396;28;20053;-68
2022/06/28 06:55:30;;;;;;;11.90;5.00;;;15.90;99.90;;;;;;5048375;28;20041;-69
2022/06/28 06:57:55;;;;;;;15.13;5.43;;;16.10;99.90;;;;;;5060638;28;20060;-69
2022/06/28 07:00:21;;;;;;;10.63;5.25;;;16.00;99.90;;;;;;5067506;28;20045;-69
2022/06/28 07:02:47;;;;;;;9.35;5.00;;;16.10;99.90;;;;;;5068275;28;20041;-69
2022/06/28 07:05:13;;;;;;;10.13;5.28;;;16.30;99.90;;;;;;5050075;28;20040;-69
2022/06/28 07:07:39;;;;;;;11.40;5.07;;;16.20;99.90;;;;;;5066913;28;20121;-69
2022/06/28 07:10:05;;;;;;;10.45;4.93;;;16.30;99.90;;;;;;5069524;28;20055;-69
2022/06/28 07:12:31;;;;;;;14.68;4.85;;;16.40;99.90;;;;;;5033778;28;20055;-70
2022/06/28 07:14:57;;;;;;;11.77;4.95;;;16.40;99.90;;;;;;5067269;28;20044;-69
2022/06/28 07:17:22;;;;;;;10.68;4.80;;;16.50;99.90;;;;;;5068594;28;20036;-73
2022/06/28 07:19:48;;;;;;;17.05;5.03;;;16.50;99.90;;;;;;5049090;28;20285;-68
2022/06/28 07:22:14;;;;;;;9.82;4.18;;;16.60;99.90;;;;;;5066710;28;20037;-68
2022/06/28 07:24:39;;;;;;;12.57;4.78;;;16.60;99.90;;;;;;5069493;28;20066;-68
2022/06/28 07:27:05;;;;;;;13.98;4.47;;;16.60;99.90;;;;;;5076256;28;20028;-68
2022/06/28 07:29:30;;;;;;;10.98;4.22;;;16.70;99.90;;;;;;5062606;28;20053;-68
2022/06/28 07:31:56;;;;;;;11.27;4.20;;;16.70;99.90;;;;;;5047875;28;20033;-68
2022/06/28 07:34:23;;;;;;;12.77;4.25;;;16.80;99.90;;;;;;5075332;28;20458;-68
2022/06/28 07:36:49;;;;;;;10.88;3.22;;;16.90;99.90;;;;;;5085947;28;20456;-68
2022/06/28 07:39:15;;;;;;;9.10;2.78;;;17.00;99.90;;;;;;5069483;28;20131;-68
2022/06/28 07:41:40;;;;;;;10.18;3.20;;;17.00;99.90;;;;;;5087681;28;20640;-68
2022/06/28 07:44:06;;;;;;;13.10;2.90;;;17.00;99.90;;;;;;5087425;28;20036;-69
2022/06/28 07:46:32;;;;;;;13.38;3.17;;;17.10;99.90;;;;;;5088012;28;20099;-68
2022/06/28 07:48:58;;;;;;;9.63;3.00;;;17.20;99.90;;;;;;5071700;28;20504;-68
2022/06/28 07:54:08;;;;;;;12.45;3.00;;;17.40;99.90;;;;;;5063152;28;20083;-68
2022/06/28 07:56:34;;;;;;;8.70;2.90;;;17.40;99.90;;;;;;5061965;28;20036;-69
2022/06/28 07:59:00;;;;;;;10.38;3.10;;;17.50;99.90;;;;;;5066960;28;20044;-69
2022/06/28 08:01:26;;;;;;;10.80;2.90;;;17.70;99.90;;;;;;5083879;28;20054;-68
2022/06/28 08:03:52;;;;;;;13.23;2.72;;;17.90;99.90;;;;;;5070137;28;20119;-69
2022/06/28 08:06:17;;;;;;;5.78;1.80;;;18.00;99.90;;;;;;5066365;28;20044;-68
2022/06/28 08:08:43;;;;;;;8.68;2.13;;;18.10;99.90;;;;;;5071524;28;20135;-69
2022/06/28 08:11:10;;;;;;;6.35;2.22;;;18.10;99.90;;;;;;5048074;28;20048;-68
2022/06/28 08:13:37;;;;;;;8.63;2.15;;;18.00;99.90;;;;;;5049997;28;20048;-67
2022/06/28 08:16:03;;;;;;;7.03;2.00;;;18.00;99.90;;;;;;5069113;28;20369;-68
2022/06/28 08:18:29;;;;;;;6.15;1.88;;;18.10;99.90;;;;;;5068908;28;20118;-67
2022/06/28 08:20:55;;;;;;;6.40;2.03;;;18.10;99.90;;;;;;5066389;28;20094;-68
2022/06/28 08:23:21;;;;;;;9.40;2.10;;;18.20;99.90;;;;;;5066055;28;20036;-69
2022/06/28 08:25:47;;;;;;;6.25;2.10;;;18.20;99.90;;;;;;5048953;28;20044;-68
2022/06/28 08:28:13;;;;;;;9.00;2.60;;;18.30;99.90;;;;;;5067353;28;20080;-69
2022/06/28 08:30:40;;;;;;;7.95;2.10;;;18.30;99.90;;;;;;5049113;28;20068;-68
2022/06/28 08:33:07;;;;;;;9.98;2.67;;;18.40;99.90;;;;;;5048467;28;20052;-69
2022/06/28 08:35:34;;;;;;;13.57;2.33;;;18.40;99.90;;;;;;5062795;28;20060;-68
2022/06/28 08:38:00;;;;;;;4.60;1.83;;;18.50;99.90;;;;;;5062239;28;20120;-68
2022/06/28 08:40:27;;;;;;;7.38;2.22;;;18.50;99.90;;;;;;5045929;28;20140;-69
2022/06/28 08:42:55;;;;;;;5.60;1.75;;;18.60;99.90;;;;;;5030283;28;20048;-68
2022/06/28 08:45:22;;;;;;;6.47;1.60;;;18.60;99.90;;;;;;5028466;28;20076;-69
2022/06/28 08:47:51;;;;;;;7.63;1.83;;;18.60;99.90;;;;;;5048218;28;20370;-69
2022/06/28 08:50:30;;;;;;;5.18;1.63;;;18.80;99.90;;;;;;5064469;28;20062;-68
2022/06/28 08:52:59;;;;;;;8.38;1.90;;;18.80;99.90;;;;;;5046927;28;20432;-68
2022/06/28 08:55:25;;;;;;;8.00;2.08;;;19.00;99.90;;;;;;5069462;28;20037;-69
2022/06/28 08:57:53;;;;;;;5.45;1.80;;;19.10;99.90;;;;;;5067496;28;20199;-69
2022/06/28 09:00:19;;;;;;;7.95;2.00;;;19.30;99.90;;;;;;5067513;28;20507;-68
2022/06/28 09:02:46;;;;;;;6.63;1.80;;;19.40;99.90;;;;;;5052080;28;20052;-68
2022/06/28 09:05:13;;;;;;;7.70;2.03;;;19.40;99.90;;;;;;5048771;28;20041;-68
2022/06/28 09:07:38;;;;;;;9.15;1.92;;;19.50;99.90;;;;;;5065472;28;20060;-68
2022/06/28 09:10:04;;;;;;;6.60;2.08;;;19.50;99.90;;;;;;5066346;28;20114;-69
2022/06/28 09:12:35;;;;;;;5.50;1.70;;;19.60;99.90;;;;;;5066833;28;20043;-68
2022/06/28 09:15:04;;;;;;;6.05;1.75;;;19.70;99.90;;;;;;5055960;28;20362;-69
2022/06/28 09:17:31;;;;;;;6.13;2.20;;;19.80;99.90;;;;;;5049148;28;20099;-68
2022/06/28 09:20:06;;;;;;;5.70;1.75;;;20.00;99.90;;;;;;5048927;28;20043;-69
2022/06/28 09:22:41;;;;;;;7.40;2.08;;;20.10;99.90;;;;;;5048182;28;20418;-68
2022/06/28 09:25:29;;;;;;;7.03;1.75;;;20.10;99.90;;;;;;5053480;28;20093;-68
2022/06/28 09:27:58;;;;;;;5.32;1.67;;;20.20;99.90;;;;;;5068975;28;20052;-69
2022/06/28 09:30:26;;;;;;;5.22;1.60;;;20.00;99.90;;;;;;5048398;28;20090;-69
2022/06/28 09:32:52;;;;;;;7.00;1.75;;;20.00;99.90;;;;;;5051015;28;20136;-68
2022/06/28 09:35:18;;;;;;;6.70;1.98;;;19.90;99.90;;;;;;5047942;28;20467;-69
2022/06/28 09:37:52;;;;;;;5.70;1.90;;;19.90;99.90;;;;;;5051543;28;20056;-69
2022/06/28 09:40:22;;;;;;;8.77;1.92;;;19.90;99.90;;;;;;5049803;28;20476;-68
2022/06/28 09:43:08;;;;;;;7.50;2.05;;;19.80;99.90;;;;;;5049968;28;20126;-69
2022/06/28 09:45:35;;;;;;;9.15;2.05;;;19.80;99.90;;;;;;5049366;28;20393;-69
2022/06/28 09:48:02;;;;;;;4.68;1.80;;;19.70;99.90;;;;;;5050184;28;20052;-69
2022/06/28 09:50:30;;;;;;;5.88;1.65;;;19.70;99.90;;;;;;5048304;28;20160;-69
2022/06/28 09:52:57;;;;;;;7.00;1.92;;;19.70;99.90;;;;;;5048110;28;20048;-69
2022/06/28 09:55:26;;;;;;;4.65;1.67;;;19.80;99.90;;;;;;5050002;28;20106;-70
2022/06/28 09:57:52;;;;;;;7.10;2.10;;;19.90;99.90;;;;;;5048204;28;20472;-69
2022/06/28 10:00:21;;;;;;;7.65;2.10;;;20.20;99.90;;;;;;5050010;28;20049;-69
2022/06/28 10:02:47;;;;;;;12.68;2.03;;;20.70;99.90;;;;;;5047107;28;20079;-69
2022/06/28 10:05:13;;;;;;;7.13;2.03;;;21.10;99.90;;;;;;5048807;28;20527;-69
2022/06/28 10:07:40;;;;;;;8.85;2.03;;;21.40;99.90;;;;;;5048677;28;20053;-69
2022/06/28 10:10:08;;;;;;;6.25;2.40;;;21.30;99.90;;;;;;5048859;28;20102;-69
2022/06/28 10:15:27;;;;;;;5.93;1.60;;;21.30;99.90;;;;;;5013720;28;20106;-70
2022/06/28 10:17:57;;;;;;;8.52;2.42;;;21.60;99.90;;;;;;5048293;28;20053;-70
2022/06/28 10:20:29;;;;;;;7.65;2.13;;;23.30;99.90;;;;;;5045713;28;20045;-70
2022/06/28 10:23:27;;;;;;;8.88;2.53;;;26.50;99.90;;;;;;5028679;28;20121;-68
2022/06/28 10:26:16;;;;;;;9.65;2.15;;;29.90;94.20;;;;;;5028863;28;20088;-68
2022/06/28 10:28:47;;;;;;;7.20;2.20;;;32.70;92.90;;;;;;5029959;28;20045;-68
2022/06/28 10:31:25;;;;;;;6.75;2.10;;;35.40;91.40;;;;;;5029887;28;20048;-69
2022/06/28 10:33:55;;;;;;;9.32;2.20;;;37.30;81.60;;;;;;5064511;28;20047;-69
2022/06/28 10:36:23;;;;;;;6.55;1.73;;;37.20;80.70;;;;;;5047907;28;20041;-70
2022/06/28 10:39:01;;;;;;;6.97;2.00;;;37.90;75.10;;;;;;5048787;28;20114;-70
2022/06/28 10:41:36;;;;;;;9.38;2.40;;;38.30;69.50;;;;;;5047901;28;20087;-76
2022/06/28 10:44:08;;;;;;;7.72;2.08;;;37.60;67.90;;;;;;5050273;28;20320;-76
2022/06/28 10:46:34;;;;;;;6.38;2.05;;;38.70;70.00;;;;;;5048268;28;20102;-77
2022/06/28 10:49:05;;;;;;;5.85;1.77;;;38.70;69.50;;;;;;5048776;28;20413;-77
2022/06/28 10:51:32;;;;;;;7.05;1.80;;;40.20;69.30;;;;;;5046630;28;20052;-77
2022/06/28 10:54:01;;;;;;;5.72;1.60;;;40.60;66.80;;;;;;5013944;28;20053;-77
2022/06/28 10:56:28;;;;;;;6.53;1.80;;;41.30;64.20;;;;;;5030372;28;20059;-77
2022/06/28 10:59:01;;;;;;;4.88;1.63;;;41.40;62.50;;;;;;5064758;28;20143;-78
2022/06/28 11:01:39;;;;;;;6.78;1.70;;;41.70;61.20;;;;;;5085950;28;20123;-76
2022/06/28 11:04:21;;;;;;;5.88;1.85;;;41.80;59.80;;;;;;5088820;28;20052;-77
2022/06/28 11:06:57;;;;;;;7.72;2.10;;;42.10;60.20;;;;;;5087399;28;20048;-77
2022/06/28 11:09:43;;;;;;;5.97;1.70;;;42.50;58.40;;;;;;5088059;28;20392;-77
2022/06/28 11:12:15;;;;;;;7.32;1.77;;;41.60;59.20;;;;;;5070102;28;20048;-76
2022/06/28 11:14:52;;;;;;;8.93;2.10;;;39.00;57.30;;;;;;5069691;28;20456;-77
2022/06/28 11:17:35;;;;;;;8.10;1.70;;;37.40;56.70;;;;;;5068933;28;20412;-76
2022/06/28 11:20:05;;;;;;;6.55;1.80;;;35.70;59.10;;;;;;5068801;28;20056;-71
2022/06/28 11:22:37;;;;;;;5.78;1.70;;;34.50;60.70;;;;;;5036310;28;20049;-72
2022/06/28 11:25:06;;;;;;;6.60;1.75;;;31.90;62.20;;;;;;5047942;28;20477;-71
2022/06/28 11:27:32;;;;;;;8.30;2.10;;;30.90;63.90;;;;;;5063809;28;20135;-71
2022/06/28 11:30:00;;;;;;;6.25;1.90;;;30.10;65.50;;;;;;5067061;28;20064;-71
2022/06/28 11:32:43;;;;;;;6.53;2.08;;;29.40;66.90;;;;;;5049937;28;20189;-71
2022/06/28 11:35:11;;;;;;;4.72;1.63;;;28.90;66.00;;;;;;5048158;28;20438;-71
2022/06/28 11:37:53;;;;;;;8.20;2.05;;;28.40;67.40;;;;;;5049532;28;20354;-71
2022/06/28 11:40:30;;;;;;;5.85;1.90;;;27.80;68.10;;;;;;5068678;28;20049;-71
2022/06/28 11:43:06;;;;;;;7.57;2.17;;;28.00;69.70;;;;;;5069854;28;20077;-72
2022/06/28 11:45:33;;;;;;;7.97;2.00;;;30.00;67.90;;;;;;5068701;28;20044;-73
2022/06/28 11:48:09;;;;;;;11.85;2.55;;;31.90;65.70;;;;;;5067911;28;20056;-71
2022/06/28 11:50:44;;;;;;;9.52;2.20;;;32.70;64.90;;;;;;5049185;28;20049;-72
2022/06/28 11:53:12;;;;;;;6.22;2.00;;;32.40;65.00;;;;;;5068042;28;20094;-72
2022/06/28 11:55:58;;;;;;;8.45;2.00;;;33.60;64.00;;;;;;5048864;28;20361;-73
2022/06/28 11:58:32;;;;;;;7.22;1.80;;;33.60;63.40;;;;;;5067806;28;20086;-72
2022/06/28 12:01:12;;;;;;;9.45;2.15;;;33.80;63.50;;;;;;5047344;28;20207;-73
2022/06/28 12:03:41;;;;;;;7.53;2.00;;;35.50;63.20;;;;;;5041336;28;20044;-73
2022/06/28 12:06:08;;;;;;;6.90;2.00;;;37.40;61.70;;;;;;5049744;28;20048;-73
2022/06/28 12:09:00;;;;;;;7.80;2.35;;;38.50;60.40;;;;;;5051687;28;20093;-71
2022/06/28 12:11:31;;;;;;;5.97;1.77;;;39.60;59.00;;;;;;5048015;28;20130;-72
2022/06/28 12:14:03;;;;;;;6.15;1.90;;;39.80;58.00;;;;;;5066697;28;20495;-72
2022/06/28 12:16:39;;;;;;;8.65;1.90;;;38.10;58.00;;;;;;5027865;28;20119;-72
2022/06/28 12:19:12;;;;;;;6.10;1.70;;;36.30;58.00;;;;;;5049351;28;20139;-72
2022/06/28 12:21:38;;;;;;;4.75;1.73;;;34.30;58.20;;;;;;5048267;28;20441;-72
2022/06/28 12:24:04;;;;;;;6.22;1.85;;;31.70;59.70;;;;;;5030086;28;20119;-73
2022/06/28 12:26:44;;;;;;;6.88;1.73;;;30.90;61.50;;;;;;5046791;28;20040;-73
2022/06/28 12:29:11;;;;;;;6.47;1.80;;;30.10;63.00;;;;;;5046713;28;20048;-74
2022/06/28 12:31:39;;;;;;;4.53;1.50;;;29.40;63.00;;;;;;5028670;28;20056;-73
2022/06/28 12:34:09;;;;;;;5.93;1.92;;;28.60;63.10;;;;;;5045718;28;20466;-73
2022/06/28 12:36:35;;;;;;;6.47;1.80;;;28.00;63.70;;;;;;5028835;28;20114;-71
2022/06/28 12:39:02;;;;;;;5.75;1.80;;;27.50;64.70;;;;;;5062927;28;20053;-73
2022/06/28 12:41:28;;;;;;;5.88;1.42;;;27.20;65.50;;;;;;5062156;28;20099;-72
2022/06/28 12:43:54;;;;;;;5.05;1.70;;;26.80;66.10;;;;;;5047753;28;20045;-72
2022/06/28 12:46:19;;;;;;;6.28;1.70;;;26.50;66.90;;;;;;5061615;28;20037;-72
2022/06/28 12:48:45;;;;;;;9.07;1.70;;;26.10;67.70;;;;;;5047838;28;20136;-72
2022/06/28 12:51:11;;;;;;;4.35;1.60;;;25.80;68.60;;;;;;5044589;28;20045;-72
2022/06/28 12:53:37;;;;;;;6.38;1.50;;;25.40;69.40;;;;;;5028670;28;20405;-72